Mayer, AZ

10:08 AM MST on October 25, 2014 (GMT -0700)
Spring Valley | Change Station
CLOSE
Current Station
Personal Weather Station
Location: Mayer, AZ
Elevation: 3917 ft
Nearby Weather Stations

Elev 3917 ft 34.34 °N, 112.16 °W | Updated 8 minutes ago

Clear
Clear
76.7 °F
Feels Like 78 °F
N
1.0
Wind Variable Wind from North
Gusts 4.0 mph

Today
High -- | Low -- °F
--% Chance of Precip.
Yesterday
High -- | Low -- °F
Precip. -- in
6:42 AM 5:42 PM
Waxing Crescent, 3% visible
Pressure 30.08 in
Visibility 10.0 miles
Clouds Scattered Clouds 5600 ft
Heat Index 78 °F
Dew Point 45 °F
Humidity 32%
Rainfall 0.00 in
Snow Depth Not available.
UV 3 out of 12
Pollen 5.20 out of 12
Air Quality Not available.
Flu Activity No Activity
METAR KPRC 251653Z 00000KT 10SM SCT056 22/06 A3027 RMK AO2 SLP185 T02170056

More Conditions Fewer Conditions

Pressure 30.08 in
Visibility 10.0 miles
Clouds Scattered Clouds 5600 ft
Heat Index 78 °F
Dew Point 45 °F
Humidity 32%
Rainfall 0.00 in
Snow Depth Not available.
UV 3 out of 12
Pollen 5.20 out of 12
Air Quality Not available.
Flu Activity No Activity
METAR KPRC 251653Z 00000KT 10SM SCT056 22/06 A3027 RMK AO2 SLP185 T02170056

More Conditions Fewer Conditions

10-Day Weather Forecast

Almanac

Astronomy

Oct. 25, 2014 Rise Set
Actual Time 6:42 AM MST 5:42 PM MST
Civil Twilight 6:16 AM MST 6:07 PM MST
Nautical Twilight 5:47 AM MST 6:37 PM MST
Astronomical Twilight 5:18 AM MST 7:06 PM MST
Moon 8:21 AM MST 7:12 PM MST
Length of Visible Light 11h 51m
Length of Day
10h 59m
Tomorrow will be 1m 57s shorter.
Waxing Crescent, 3% of the Moon is Illuminated
Today
Waxing Crescent
Oct 30
First Quarter
Nov 6
Full
Nov 14
Last Quarter
Nov 22
New

Today's Extremes

State Highs State Lows

Community

WunderPhotos

Upload Photos

1,764,909 photos uploaded!

Nearby

Snow Depth

Station Depth Elevation
Baker Butte 0 in 7300 ft
Happy Jack 0 in 7630 ft
Mormon Mountain 0 in 7500 ft
Promontory 0 in 7930 ft
Workman Creek 1 in 6900 ft

Earthquake Activity

City Distance Mag. Time & Date
No recent earthquake activity has been reported nearby.
Minimum magnitude displayed is 2.5.

Coastal Water Temperatures

Place Temperature
No Stations Reporting

Nearby Weather Stations